createdAt,value
2023-08-15T00:01:14.036Z,20.76
2023-08-15T00:04:18.454Z,20.76
2023-08-15T00:07:21.721Z,20.79
2023-08-15T00:10:25.391Z,20.88
2023-08-15T00:13:28.961Z,20.78
2023-08-15T00:16:32.340Z,20.86
2023-08-15T00:19:34.979Z,20.76
2023-08-15T00:22:38.353Z,20.89
2023-08-15T00:25:41.553Z,20.97
2023-08-15T00:28:44.266Z,21.05
2023-08-15T00:31:48.235Z,21.16
2023-08-15T00:34:55.093Z,21.14
2023-08-15T00:37:57.963Z,21.01
2023-08-15T00:41:07.784Z,20.94
2023-08-15T00:44:14.259Z,20.89
2023-08-15T00:47:18.613Z,20.88
2023-08-15T00:50:23.181Z,20.71
2023-08-15T00:53:32.999Z,20.68
2023-08-15T00:56:37.257Z,20.73
2023-08-15T00:59:44.545Z,20.74
2023-08-15T01:02:48.047Z,20.83
2023-08-15T01:05:51.155Z,20.67
2023-08-15T01:08:58.379Z,20.58
2023-08-15T01:12:12.336Z,20.49
2023-08-15T01:15:25.293Z,20.43
2023-08-15T01:18:44.054Z,20.36
2023-08-15T01:21:50.743Z,20.41
2023-08-15T01:24:54.978Z,20.30
2023-08-15T01:28:06.350Z,20.30
2023-08-15T01:31:32.087Z,20.32
2023-08-15T01:34:47.834Z,20.23
2023-08-15T01:38:00.700Z,20.21
2023-08-15T01:41:08.350Z,20.26
2023-08-15T01:44:13.528Z,20.28
2023-08-15T01:47:16.939Z,20.22
2023-08-15T01:50:26.481Z,20.21
2023-08-15T01:53:30.673Z,20.23
2023-08-15T01:56:35.128Z,20.26
2023-08-15T01:59:40.060Z,20.26
2023-08-15T02:02:48.599Z,20.15
2023-08-15T02:05:52.269Z,20.14
2023-08-15T02:08:57.021Z,20.07
2023-08-15T02:12:01.154Z,20.11
2023-08-15T02:15:09.557Z,20.23
2023-08-15T02:18:13.202Z,20.26
2023-08-15T02:21:16.558Z,20.27
2023-08-15T02:24:19.759Z,20.29
2023-08-15T02:27:22.510Z,20.27
2023-08-15T02:30:28.072Z,20.32
2023-08-15T02:33:30.776Z,20.37
2023-08-15T02:36:35.305Z,20.45
2023-08-15T02:39:43.255Z,20.35
2023-08-15T02:42:47.131Z,20.29
2023-08-15T02:45:55.263Z,20.28
2023-08-15T02:48:58.120Z,20.22
2023-08-15T02:52:06.436Z,20.26
2023-08-15T02:55:14.472Z,20.25
2023-08-15T02:58:17.549Z,20.13
2023-08-15T03:01:20.260Z,20.03
2023-08-15T03:04:24.843Z,19.95
2023-08-15T03:07:29.704Z,19.96
2023-08-15T03:10:36.982Z,19.90
2023-08-15T03:13:40.124Z,19.87
2023-08-15T03:16:44.297Z,19.91
2023-08-15T03:19:47.203Z,20.00
2023-08-15T03:22:50.146Z,19.89
2023-08-15T03:26:01.959Z,19.93
2023-08-15T03:29:06.607Z,19.83
2023-08-15T03:32:10.062Z,19.93
2023-08-15T03:35:17.002Z,19.89
2023-08-15T03:38:23.124Z,19.87
2023-08-15T03:41:28.300Z,19.93
2023-08-15T03:44:31.703Z,19.91
2023-08-15T03:47:34.163Z,19.96
2023-08-15T03:50:39.158Z,19.97
2023-08-15T03:53:44.627Z,19.93
2023-08-15T03:56:47.859Z,19.96
2023-08-15T03:59:50.963Z,19.96
2023-08-15T04:02:53.807Z,20.02
2023-08-15T04:05:59.240Z,20.03
2023-08-15T04:09:06.859Z,20.00
2023-08-15T04:12:09.874Z,19.95
2023-08-15T04:15:13.927Z,19.88
2023-08-15T04:18:21.462Z,19.91
2023-08-15T04:21:24.543Z,19.92
2023-08-15T04:24:29.109Z,19.95
2023-08-15T04:27:35.343Z,19.98
2023-08-15T04:30:39.103Z,20.02
2023-08-15T04:33:42.281Z,20.02
2023-08-15T04:40:18.077Z,20.16
2023-08-15T04:43:24.238Z,20.34
2023-08-15T04:49:55.672Z,20.58
2023-08-15T04:52:59.415Z,20.83
2023-08-15T04:56:02.550Z,21.42
2023-08-15T04:59:06.353Z,21.53
2023-08-15T05:02:14.325Z,21.87
2023-08-15T05:05:18.974Z,21.87
2023-08-15T05:08:22.915Z,21.84
2023-08-15T05:11:31.392Z,21.95
2023-08-15T05:14:57.322Z,21.94
2023-08-15T05:18:07.187Z,21.99
2023-08-15T05:21:20.714Z,21.97
2023-08-15T05:28:12.568Z,23.89
2023-08-15T05:31:48.249Z,23.98
2023-08-15T05:34:52.558Z,23.31
2023-08-15T05:38:03.141Z,23.35
2023-08-15T05:41:06.221Z,23.40
2023-08-15T05:44:09.600Z,23.48
2023-08-15T05:47:13.803Z,23.57
2023-08-15T05:50:19.259Z,23.37
2023-08-15T05:53:23.161Z,23.18
2023-08-15T05:56:27.002Z,23.41
2023-08-15T05:59:29.902Z,23.47
2023-08-15T06:02:36.896Z,23.50
2023-08-15T06:05:40.275Z,24.17
2023-08-15T06:08:45.493Z,24.54
2023-08-15T06:11:52.299Z,25.34
2023-08-15T06:14:56.012Z,26.04
2023-08-15T06:18:00.702Z,26.24
2023-08-15T06:21:03.298Z,26.46
2023-08-15T06:24:07.035Z,26.47
2023-08-15T06:27:14.637Z,25.79
2023-08-15T06:30:22.211Z,25.26
2023-08-15T06:33:25.306Z,24.57
2023-08-15T06:36:29.590Z,24.36
2023-08-15T06:39:34.317Z,24.40
2023-08-15T06:42:38.596Z,24.32
2023-08-15T06:45:43.545Z,24.70
2023-08-15T06:48:49.737Z,24.75
2023-08-15T06:51:52.762Z,24.81
2023-08-15T06:54:56.026Z,25.32
2023-08-15T06:58:00.046Z,25.87
2023-08-15T07:01:02.984Z,25.73
2023-08-15T07:04:06.321Z,25.50
2023-08-15T07:07:10.100Z,25.34
2023-08-15T07:10:14.114Z,25.38
2023-08-15T07:13:16.901Z,25.61
2023-08-15T07:16:21.252Z,25.79
2023-08-15T07:19:24.828Z,26.55
2023-08-15T07:22:27.518Z,29.37
2023-08-15T07:25:30.531Z,31.33
2023-08-15T07:28:33.466Z,32.22
2023-08-15T07:31:37.741Z,33.11
2023-08-15T07:34:41.427Z,35.77
2023-08-15T07:37:49.436Z,36.32
2023-08-15T07:40:54.401Z,36.53
2023-08-15T07:44:00.734Z,37.35
2023-08-15T07:47:04.913Z,36.83
2023-08-15T07:50:18.644Z,35.61
2023-08-15T07:53:25.995Z,37.24
2023-08-15T07:56:32.851Z,38.05
2023-08-15T07:59:36.091Z,38.43
2023-08-15T08:02:39.721Z,38.26
2023-08-15T08:05:44.247Z,37.13
2023-08-15T08:08:48.025Z,37.09
2023-08-15T08:11:51.755Z,33.60
2023-08-15T08:14:57.830Z,30.76
2023-08-15T08:18:03.066Z,31.06
2023-08-15T08:21:08.276Z,30.62
2023-08-15T08:24:13.631Z,29.82
2023-08-15T08:27:17.850Z,29.52
2023-08-15T08:30:25.822Z,29.46
2023-08-15T08:33:32.933Z,29.30
2023-08-15T08:36:36.642Z,29.35
2023-08-15T08:39:41.383Z,29.45
2023-08-15T08:42:46.834Z,29.84
2023-08-15T08:45:52.855Z,29.44
2023-08-15T08:49:04.029Z,29.53
2023-08-15T08:52:11.382Z,29.72
2023-08-15T08:55:16.242Z,29.66
2023-08-15T08:58:20.329Z,30.09
2023-08-15T09:01:24.358Z,30.25
2023-08-15T09:04:28.532Z,30.33
2023-08-15T09:07:36.859Z,30.47
2023-08-15T09:10:42.102Z,30.54
2023-08-15T09:13:54.327Z,30.78
2023-08-15T09:16:57.628Z,30.85
2023-08-15T09:20:14.551Z,30.79
2023-08-15T09:23:18.594Z,30.91
2023-08-15T09:26:21.661Z,30.92
2023-08-15T09:29:24.662Z,30.93
2023-08-15T09:32:28.793Z,31.05
2023-08-15T09:35:42.587Z,31.14
2023-08-15T09:38:54.712Z,31.22
2023-08-15T09:41:57.699Z,31.04
2023-08-15T09:45:01.605Z,31.04
2023-08-15T09:48:08.510Z,30.99
2023-08-15T09:51:14.448Z,31.25
2023-08-15T09:54:18.452Z,31.46
2023-08-15T09:57:22.200Z,31.45
2023-08-15T10:00:25.595Z,31.65
2023-08-15T10:03:41.533Z,31.50
2023-08-15T10:06:45.096Z,31.43
2023-08-15T10:09:49.277Z,31.14
2023-08-15T10:12:53.503Z,31.32
2023-08-15T10:15:57.484Z,31.24
2023-08-15T10:19:00.919Z,31.59
2023-08-15T10:22:04.541Z,31.66
2023-08-15T10:25:22.080Z,31.50
2023-08-15T10:28:28.845Z,31.64
2023-08-15T10:31:38.808Z,31.71
2023-08-15T10:34:43.137Z,31.79
2023-08-15T10:37:51.230Z,31.97
2023-08-15T10:41:19.762Z,32.14
2023-08-15T10:44:24.883Z,32.23
2023-08-15T10:50:45.700Z,32.65
2023-08-15T10:53:55.100Z,32.83
2023-08-15T10:57:02.608Z,32.60
2023-08-15T11:00:07.276Z,32.18
2023-08-15T11:03:11.129Z,32.33
2023-08-15T11:06:15.736Z,32.24
2023-08-15T11:09:21.372Z,32.62
2023-08-15T11:12:28.856Z,32.79
2023-08-15T11:15:34.615Z,32.98
2023-08-15T11:18:38.522Z,32.96
2023-08-15T11:21:41.941Z,33.19
2023-08-15T11:24:49.451Z,33.22
2023-08-15T11:27:53.227Z,33.02
2023-08-15T11:31:05.611Z,33.29
2023-08-15T11:34:13.375Z,33.42
2023-08-15T11:37:16.321Z,33.65
2023-08-15T11:40:21.392Z,33.69
2023-08-15T11:43:24.230Z,33.79
2023-08-15T11:46:33.541Z,33.67
2023-08-15T11:49:49.408Z,33.70
2023-08-15T11:52:52.275Z,33.62
2023-08-15T11:55:57.859Z,33.48
2023-08-15T11:59:05.950Z,33.73
2023-08-15T12:02:13.052Z,33.80
2023-08-15T12:05:18.265Z,33.99
2023-08-15T12:08:26.480Z,34.11
2023-08-15T12:11:31.454Z,33.60
2023-08-15T12:14:49.271Z,33.45
2023-08-15T12:17:54.599Z,33.23
2023-08-15T12:20:58.190Z,32.95
2023-08-15T12:24:03.036Z,33.02
2023-08-15T12:27:07.669Z,33.20
2023-08-15T12:30:14.394Z,33.55
2023-08-15T12:33:35.130Z,33.54
2023-08-15T12:36:44.406Z,33.67
2023-08-15T12:39:46.939Z,33.70
2023-08-15T12:42:50.598Z,33.74
2023-08-15T12:45:54.303Z,33.73
2023-08-15T12:49:02.009Z,34.04
2023-08-15T12:52:07.649Z,34.18
2023-08-15T12:55:12.203Z,33.88
2023-08-15T12:58:16.216Z,33.34
2023-08-15T13:01:19.280Z,32.84
2023-08-15T13:04:22.281Z,32.48
2023-08-15T13:07:25.003Z,32.54
2023-08-15T13:10:27.621Z,32.82
2023-08-15T13:13:31.228Z,32.98
2023-08-15T13:16:36.249Z,33.42
2023-08-15T13:19:39.670Z,33.41
2023-08-15T13:22:43.508Z,33.39
2023-08-15T13:25:49.599Z,33.38
2023-08-15T13:28:55.136Z,33.29
2023-08-15T13:32:01.476Z,33.23
2023-08-15T13:35:04.790Z,33.05
2023-08-15T13:38:08.902Z,32.97
2023-08-15T13:41:13.885Z,32.76
2023-08-15T13:44:16.356Z,32.77
2023-08-15T13:47:20.211Z,32.79
2023-08-15T13:50:23.438Z,32.88
2023-08-15T13:53:29.681Z,32.83
2023-08-15T13:56:33.498Z,32.71
2023-08-15T13:59:38.129Z,32.73
2023-08-15T14:02:41.416Z,32.76
2023-08-15T14:05:44.146Z,32.81
2023-08-15T14:08:48.533Z,32.97
2023-08-15T14:11:51.626Z,32.96
2023-08-15T14:14:56.254Z,33.01
2023-08-15T14:18:00.145Z,33.16
2023-08-15T14:21:04.291Z,32.82
2023-08-15T14:24:07.372Z,32.87
2023-08-15T14:27:10.963Z,32.84
2023-08-15T14:30:17.347Z,32.70
2023-08-15T14:33:21.358Z,32.50
2023-08-15T14:36:24.766Z,32.20
2023-08-15T14:39:28.380Z,32.17
2023-08-15T14:42:34.441Z,32.11
2023-08-15T14:45:38.050Z,32.10
2023-08-15T14:48:41.943Z,32.18
2023-08-15T14:51:44.958Z,31.89
2023-08-15T14:54:48.891Z,31.63
2023-08-15T14:57:52.169Z,31.23
2023-08-15T15:00:55.808Z,31.03
2023-08-15T15:03:59.137Z,30.87
2023-08-15T15:07:02.685Z,30.82
2023-08-15T15:10:06.211Z,30.99
2023-08-15T15:13:09.366Z,31.11
2023-08-15T15:16:15.219Z,31.26
2023-08-15T15:19:18.937Z,31.39
2023-08-15T15:22:22.007Z,31.40
2023-08-15T15:25:25.726Z,31.56
2023-08-15T15:28:29.473Z,31.59
2023-08-15T15:31:40.092Z,31.61
2023-08-15T15:34:42.948Z,31.53
2023-08-15T15:37:46.328Z,31.47
2023-08-15T15:40:50.630Z,31.23
2023-08-15T15:43:53.763Z,31.05
2023-08-15T15:46:58.997Z,30.99
2023-08-15T15:50:02.874Z,30.87
2023-08-15T15:53:07.934Z,30.69
2023-08-15T15:56:14.067Z,30.67
2023-08-15T15:59:18.082Z,30.62
2023-08-15T16:02:21.822Z,30.70
2023-08-15T16:05:25.610Z,30.61
2023-08-15T16:08:28.897Z,30.41
2023-08-15T16:11:32.378Z,30.31
2023-08-15T16:14:35.915Z,30.21
2023-08-15T16:17:40.365Z,30.13
2023-08-15T16:20:45.276Z,30.06
2023-08-15T16:23:49.187Z,30.11
2023-08-15T16:26:52.825Z,30.07
2023-08-15T16:30:03.143Z,30.08
2023-08-15T16:33:14.442Z,30.00
2023-08-15T16:36:19.900Z,30.01
2023-08-15T16:39:24.108Z,29.95
2023-08-15T16:42:33.570Z,29.90
2023-08-15T16:45:39.093Z,29.97
2023-08-15T16:48:43.212Z,29.92
2023-08-15T16:51:47.242Z,29.97
2023-08-15T16:54:51.974Z,29.98
2023-08-15T16:57:56.909Z,30.01
2023-08-15T17:01:00.183Z,29.95
2023-08-15T17:04:04.162Z,29.85
2023-08-15T17:07:07.809Z,29.78
2023-08-15T17:10:11.423Z,29.73
2023-08-15T17:13:14.263Z,29.67
2023-08-15T17:16:17.421Z,29.61
2023-08-15T17:19:21.348Z,29.52
2023-08-15T17:22:25.183Z,29.33
2023-08-15T17:25:29.244Z,29.09
2023-08-15T17:28:33.867Z,28.74
2023-08-15T17:31:38.349Z,27.89
2023-08-15T17:34:46.011Z,27.16
2023-08-15T17:37:49.123Z,26.96
2023-08-15T17:40:57.912Z,26.86
2023-08-15T17:44:01.985Z,26.76
2023-08-15T17:47:08.669Z,26.71
2023-08-15T17:50:11.269Z,26.78
2023-08-15T17:53:20.413Z,26.83
2023-08-15T17:56:28.133Z,26.73
2023-08-15T17:59:30.976Z,26.64
2023-08-15T18:02:35.671Z,26.63
2023-08-15T18:05:39.121Z,26.60
2023-08-15T18:08:42.521Z,26.59
2023-08-15T18:11:48.528Z,26.56
2023-08-15T18:14:52.130Z,26.53
2023-08-15T18:17:56.242Z,26.47
2023-08-15T18:21:02.029Z,26.41
2023-08-15T18:24:06.092Z,26.35
2023-08-15T18:27:09.406Z,26.29
2023-08-15T18:30:14.247Z,26.24
2023-08-15T18:33:17.954Z,26.20
2023-08-15T18:36:21.039Z,26.11
2023-08-15T18:39:24.465Z,25.97
2023-08-15T18:42:26.853Z,25.83
2023-08-15T18:45:29.586Z,25.71
2023-08-15T18:48:35.291Z,25.58
2023-08-15T18:51:39.124Z,25.46
2023-08-15T18:54:42.696Z,25.42
2023-08-15T18:57:45.383Z,25.26
2023-08-15T19:00:52.041Z,25.15
2023-08-15T19:03:55.826Z,25.00
2023-08-15T19:07:01.409Z,24.83
2023-08-15T19:10:05.945Z,24.76
2023-08-15T19:13:09.319Z,24.64
2023-08-15T19:16:13.818Z,24.49
2023-08-15T19:19:18.474Z,24.40
2023-08-15T19:22:21.461Z,24.29
2023-08-15T19:25:25.472Z,24.23
2023-08-15T19:28:32.500Z,24.20
2023-08-15T19:31:36.727Z,24.10
2023-08-15T19:34:50.531Z,24.05
2023-08-15T19:37:53.434Z,23.93
2023-08-15T19:40:56.717Z,23.87
2023-08-15T19:44:00.122Z,23.81
2023-08-15T19:47:04.243Z,23.73
2023-08-15T19:50:08.428Z,23.65
2023-08-15T19:53:15.242Z,23.59
2023-08-15T19:56:19.066Z,23.53
2023-08-15T19:59:22.140Z,23.48
2023-08-15T20:02:26.793Z,23.46
2023-08-15T20:05:31.096Z,23.40
2023-08-15T20:08:34.254Z,23.40
2023-08-15T20:11:38.464Z,23.36
2023-08-15T20:14:42.428Z,23.42
2023-08-15T20:17:45.452Z,23.46
2023-08-15T20:20:48.918Z,23.39
2023-08-15T20:23:52.558Z,23.36
2023-08-15T20:26:56.087Z,23.36
2023-08-15T20:30:04.212Z,23.37
2023-08-15T20:33:08.122Z,23.47
2023-08-15T20:36:15.015Z,23.45
2023-08-15T20:39:18.548Z,23.45
2023-08-15T20:42:22.666Z,23.45
2023-08-15T20:45:26.031Z,23.38
2023-08-15T20:48:29.571Z,23.32
2023-08-15T20:51:34.721Z,23.26
2023-08-15T20:54:37.133Z,23.21
2023-08-15T20:57:43.730Z,23.20
2023-08-15T21:00:52.629Z,23.18
2023-08-15T21:03:59.813Z,23.20
2023-08-15T21:07:04.486Z,23.23
2023-08-15T21:10:08.842Z,23.30
2023-08-15T21:13:12.223Z,23.47
2023-08-15T21:16:14.998Z,23.64
2023-08-15T21:19:20.342Z,23.81
2023-08-15T21:22:27.445Z,23.85
2023-08-15T21:25:31.155Z,23.93
2023-08-15T21:28:36.245Z,23.95
2023-08-15T21:31:42.456Z,23.97
2023-08-15T21:34:49.370Z,24.01
2023-08-15T21:37:53.917Z,23.96
2023-08-15T21:40:59.116Z,23.88
2023-08-15T21:44:03.344Z,23.81
2023-08-15T21:47:06.200Z,23.76
2023-08-15T21:50:13.034Z,23.75
2023-08-15T21:53:17.421Z,23.73
2023-08-15T21:56:20.924Z,23.68
2023-08-15T21:59:25.168Z,23.61
2023-08-15T22:02:31.597Z,23.59
2023-08-15T22:05:35.067Z,23.60
2023-08-15T22:08:37.960Z,23.56
2023-08-15T22:11:41.517Z,23.62
2023-08-15T22:14:44.712Z,23.66
2023-08-15T22:17:54.768Z,23.62
2023-08-15T22:21:07.593Z,23.60
2023-08-15T22:24:10.816Z,23.52
2023-08-15T22:27:14.811Z,23.39
2023-08-15T22:30:17.935Z,23.35
2023-08-15T22:33:26.359Z,23.28
2023-08-15T22:36:30.734Z,23.22
2023-08-15T22:39:33.433Z,23.18
2023-08-15T22:42:39.280Z,23.21
2023-08-15T22:45:43.428Z,23.19
2023-08-15T22:48:46.013Z,23.22
2023-08-15T22:51:50.139Z,23.24
2023-08-15T22:54:53.613Z,23.21
2023-08-15T22:57:58.025Z,23.20
2023-08-15T23:01:13.788Z,23.20
2023-08-15T23:04:18.179Z,23.16
2023-08-15T23:07:25.594Z,23.17
2023-08-15T23:10:29.466Z,23.03
2023-08-15T23:13:36.858Z,22.97
2023-08-15T23:16:40.097Z,22.93
2023-08-15T23:19:44.487Z,22.90
2023-08-15T23:22:47.265Z,22.82
2023-08-15T23:25:50.157Z,22.76
2023-08-15T23:28:53.336Z,22.60
2023-08-15T23:31:57.097Z,22.43
2023-08-15T23:35:01.267Z,22.41
2023-08-15T23:38:06.109Z,22.31
2023-08-15T23:41:10.104Z,22.20
2023-08-15T23:44:14.743Z,22.03
2023-08-15T23:47:18.279Z,21.98
2023-08-15T23:50:22.869Z,21.97
2023-08-15T23:53:26.503Z,21.88
2023-08-15T23:56:31.289Z,21.85
